createdAt,value
2023-05-10T00:02:11.509Z,70.29
2023-05-10T00:04:37.826Z,70.69
2023-05-10T00:07:04.081Z,70.38
2023-05-10T00:09:30.339Z,71.33
2023-05-10T00:11:56.578Z,70.67
2023-05-10T00:14:22.862Z,71.61
2023-05-10T00:16:49.255Z,71.09
2023-05-10T00:19:16.183Z,71.63
2023-05-10T00:21:42.562Z,71.13
2023-05-10T00:24:08.824Z,71.82
2023-05-10T00:26:35.127Z,71.31
2023-05-10T00:29:01.414Z,71.30
2023-05-10T00:31:27.777Z,71.69
2023-05-10T00:33:54.091Z,71.42
2023-05-10T00:36:20.372Z,70.85
2023-05-10T00:38:46.645Z,71.25
2023-05-10T00:41:12.890Z,71.24
2023-05-10T00:43:39.157Z,70.76
2023-05-10T00:46:05.510Z,71.25
2023-05-10T00:48:31.810Z,72.01
2023-05-10T00:50:58.054Z,72.39
2023-05-10T00:53:24.317Z,72.42
2023-05-10T00:55:50.572Z,71.97
2023-05-10T00:58:16.821Z,71.30
2023-05-10T01:00:43.121Z,70.97
2023-05-10T01:03:09.442Z,71.01
2023-05-10T01:05:35.753Z,70.51
2023-05-10T01:08:02.053Z,70.14
2023-05-10T01:10:28.301Z,70.01
2023-05-10T01:12:54.579Z,70.10
2023-05-10T01:15:20.836Z,70.36
2023-05-10T01:17:47.213Z,70.39
2023-05-10T01:20:13.571Z,70.47
2023-05-10T01:22:39.976Z,70.32
2023-05-10T01:25:06.297Z,70.71
2023-05-10T01:27:32.580Z,69.93
2023-05-10T01:30:14.187Z,69.38
2023-05-10T01:32:41.567Z,70.03
2023-05-10T01:35:07.870Z,69.56
2023-05-10T01:37:34.142Z,69.99
2023-05-10T01:40:00.435Z,69.88
2023-05-10T01:42:26.697Z,69.29
2023-05-10T01:44:52.957Z,69.65
2023-05-10T01:47:19.215Z,69.05
2023-05-10T01:49:45.448Z,69.33
2023-05-10T01:52:11.697Z,69.40
2023-05-10T01:54:37.963Z,69.58
2023-05-10T01:57:04.241Z,69.44
2023-05-10T01:59:30.514Z,68.65
2023-05-10T02:01:56.769Z,70.80
2023-05-10T02:04:23.021Z,69.41
2023-05-10T02:06:49.385Z,70.16
2023-05-10T02:09:15.637Z,69.58
2023-05-10T02:11:41.874Z,68.55
2023-05-10T02:14:08.112Z,68.50
2023-05-10T02:16:34.393Z,67.63
2023-05-10T02:19:00.679Z,67.51
2023-05-10T02:21:26.915Z,67.51
2023-05-10T02:23:53.188Z,66.93
2023-05-10T02:26:19.444Z,67.41
2023-05-10T02:28:45.695Z,67.82
2023-05-10T02:31:11.944Z,66.80
2023-05-10T02:33:38.200Z,67.30
2023-05-10T02:36:04.450Z,67.56
2023-05-10T02:38:30.685Z,67.61
2023-05-10T02:40:56.941Z,67.73
2023-05-10T02:43:23.211Z,67.49
2023-05-10T02:45:49.535Z,67.58
2023-05-10T02:48:15.838Z,66.65
2023-05-10T02:50:42.128Z,67.16
2023-05-10T02:53:08.412Z,67.45
2023-05-10T02:55:34.676Z,68.24
2023-05-10T02:58:00.959Z,68.70
2023-05-10T03:00:27.224Z,69.51
2023-05-10T03:02:53.571Z,69.55
2023-05-10T03:05:19.842Z,69.36
2023-05-10T03:07:46.099Z,69.47
2023-05-10T03:10:12.358Z,68.69
2023-05-10T03:12:38.603Z,68.57
2023-05-10T03:15:04.854Z,67.94
2023-05-10T03:17:31.195Z,67.44
2023-05-10T03:19:57.463Z,68.63
2023-05-10T03:22:23.712Z,68.12
2023-05-10T03:24:49.958Z,68.07
2023-05-10T03:27:16.229Z,68.19
2023-05-10T03:29:42.472Z,67.84
2023-05-10T03:32:08.736Z,68.85
2023-05-10T03:34:35.014Z,68.16
2023-05-10T03:37:01.275Z,68.98
2023-05-10T03:39:27.540Z,68.69
2023-05-10T03:41:53.777Z,69.61
2023-05-10T03:44:20.102Z,68.88
2023-05-10T03:46:46.417Z,69.23
2023-05-10T03:49:12.704Z,68.46
2023-05-10T03:51:39.104Z,69.30
2023-05-10T03:54:05.349Z,69.93
2023-05-10T03:56:31.632Z,69.82
2023-05-10T03:58:57.896Z,70.41
2023-05-10T04:01:24.156Z,70.22
2023-05-10T04:03:50.513Z,69.78
2023-05-10T04:06:16.802Z,70.97
2023-05-10T04:08:43.087Z,70.38
2023-05-10T04:11:09.350Z,70.92
2023-05-10T04:13:35.614Z,70.16
2023-05-10T04:16:01.862Z,70.61
2023-05-10T04:18:28.120Z,71.56
2023-05-10T04:20:54.370Z,70.74
2023-05-10T04:23:20.755Z,71.38
2023-05-10T04:25:47.014Z,70.62
2023-05-10T04:28:13.325Z,70.98
2023-05-10T04:30:39.615Z,70.81
2023-05-10T04:33:05.968Z,70.67
2023-05-10T04:35:32.231Z,70.58
2023-05-10T04:37:58.502Z,70.87
2023-05-10T04:40:24.784Z,70.61
2023-05-10T04:42:51.050Z,70.50
2023-05-10T04:45:17.458Z,69.71
2023-05-10T04:47:43.779Z,70.10
2023-05-10T04:50:10.096Z,69.43
2023-05-10T04:52:36.388Z,70.20
2023-05-10T04:55:02.680Z,68.68
2023-05-10T04:57:28.965Z,68.87
2023-05-10T04:59:55.212Z,68.85
2023-05-10T05:02:21.543Z,68.81
2023-05-10T05:04:47.790Z,69.27
2023-05-10T05:07:14.053Z,68.92
2023-05-10T05:09:40.360Z,68.08
2023-05-10T05:12:06.628Z,67.50
2023-05-10T05:14:32.952Z,68.02
2023-05-10T05:16:59.209Z,67.18
2023-05-10T05:19:25.455Z,67.72
2023-05-10T05:21:51.711Z,67.34
2023-05-10T05:24:17.959Z,67.57
2023-05-10T05:26:44.233Z,67.88
2023-05-10T05:29:10.527Z,67.15
2023-05-10T05:31:36.830Z,67.46
2023-05-10T05:34:03.154Z,66.65
2023-05-10T05:36:29.408Z,66.59
2023-05-10T05:38:55.686Z,66.26
2023-05-10T05:41:21.937Z,66.24
2023-05-10T05:43:48.180Z,66.90
2023-05-10T05:46:14.452Z,66.63
2023-05-10T05:48:40.738Z,65.88
2023-05-10T05:51:07.421Z,66.72
2023-05-10T05:53:33.837Z,66.10
2023-05-10T05:56:00.128Z,65.94
2023-05-10T05:58:26.420Z,66.33
2023-05-10T06:00:52.689Z,65.21
2023-05-10T06:03:19.045Z,65.38
2023-05-10T06:05:45.359Z,64.54
2023-05-10T06:08:11.616Z,65.63
2023-05-10T06:10:37.925Z,65.80
2023-05-10T06:13:04.254Z,65.16
2023-05-10T06:15:30.572Z,64.31
2023-05-10T06:17:56.876Z,64.07
2023-05-10T06:20:23.170Z,64.23
2023-05-10T06:22:49.481Z,64.13
2023-05-10T06:25:16.012Z,63.71
2023-05-10T06:27:42.510Z,64.28
2023-05-10T06:30:12.852Z,63.58
2023-05-10T06:32:39.832Z,63.29
2023-05-10T06:35:06.083Z,63.06
2023-05-10T06:37:32.329Z,62.84
2023-05-10T06:39:58.588Z,62.72
2023-05-10T06:42:24.857Z,63.10
2023-05-10T06:44:51.113Z,62.10
2023-05-10T06:47:17.390Z,61.73
2023-05-10T06:49:43.660Z,61.43
2023-05-10T06:52:09.930Z,60.03
2023-05-10T06:54:36.210Z,60.73
2023-05-10T06:57:03.954Z,59.89
2023-05-10T06:59:31.159Z,60.12
2023-05-10T07:01:57.509Z,59.54
2023-05-10T07:04:23.825Z,59.54
2023-05-10T07:06:50.105Z,58.33
2023-05-10T07:09:16.369Z,59.71
2023-05-10T07:11:42.630Z,58.68
2023-05-10T07:14:08.887Z,58.83
2023-05-10T07:16:35.192Z,60.83
2023-05-10T07:19:01.491Z,62.51
2023-05-10T07:21:27.803Z,63.08
2023-05-10T07:23:54.125Z,61.59
2023-05-10T07:26:20.422Z,61.52
2023-05-10T07:28:46.689Z,60.51
2023-05-10T07:31:12.951Z,59.38
2023-05-10T07:33:39.225Z,58.14
2023-05-10T07:36:05.476Z,58.79
2023-05-10T07:38:31.745Z,57.90
2023-05-10T07:40:58.008Z,58.45
2023-05-10T07:43:24.258Z,58.58
2023-05-10T07:45:50.543Z,58.64
2023-05-10T07:48:16.835Z,59.68
2023-05-10T07:50:43.102Z,59.84
2023-05-10T07:53:09.379Z,59.31
2023-05-10T07:55:36.097Z,60.00
2023-05-10T07:58:02.394Z,59.95
2023-05-10T08:00:28.697Z,60.58
2023-05-10T08:02:55.047Z,59.63
2023-05-10T08:05:21.375Z,59.44
2023-05-10T08:07:47.629Z,59.89
2023-05-10T08:10:13.910Z,59.63
2023-05-10T08:12:40.175Z,59.65
2023-05-10T08:15:06.457Z,59.18
2023-05-10T08:17:32.798Z,57.92
2023-05-10T08:19:59.097Z,56.18
2023-05-10T08:22:25.357Z,52.83
2023-05-10T08:24:51.600Z,52.81
2023-05-10T08:27:17.881Z,52.03
2023-05-10T08:29:49.997Z,51.73
2023-05-10T08:32:16.561Z,52.41
2023-05-10T08:34:42.800Z,51.04
2023-05-10T08:37:09.106Z,50.33
2023-05-10T08:39:35.424Z,52.47
2023-05-10T08:42:01.701Z,51.27
2023-05-10T08:44:28.000Z,51.20
2023-05-10T08:46:54.310Z,51.46
2023-05-10T08:49:20.614Z,50.84
2023-05-10T08:51:46.885Z,49.37
2023-05-10T08:54:13.141Z,51.06
2023-05-10T08:56:39.443Z,50.93
2023-05-10T08:59:05.774Z,50.38
2023-05-10T09:01:32.126Z,50.84
2023-05-10T09:03:58.488Z,52.09
2023-05-10T09:06:24.809Z,53.17
2023-05-10T09:08:51.065Z,55.79
2023-05-10T09:11:17.729Z,55.69
2023-05-10T09:13:44.114Z,53.40
2023-05-10T09:16:21.199Z,52.17
2023-05-10T09:18:49.018Z,51.61
2023-05-10T09:21:15.313Z,49.79
2023-05-10T09:23:41.616Z,48.91
2023-05-10T09:26:08.025Z,48.59
2023-05-10T09:28:34.638Z,48.27
2023-05-10T09:31:00.923Z,47.66
2023-05-10T09:33:27.225Z,46.52
2023-05-10T09:35:53.696Z,46.91
2023-05-10T09:38:21.916Z,47.16
2023-05-10T09:40:48.186Z,45.16
2023-05-10T09:43:14.445Z,46.26
2023-05-10T09:45:40.824Z,45.07
2023-05-10T09:48:07.549Z,46.42
2023-05-10T09:50:34.048Z,46.81
2023-05-10T09:53:00.321Z,45.67
2023-05-10T09:55:26.589Z,48.88
2023-05-10T09:57:52.857Z,50.48
2023-05-10T10:00:19.114Z,50.40
2023-05-10T10:02:45.425Z,49.01
2023-05-10T10:05:11.974Z,50.54
2023-05-10T10:07:38.779Z,49.52
2023-05-10T10:10:05.282Z,50.90
2023-05-10T10:12:32.206Z,51.43
2023-05-10T10:14:59.109Z,51.42
2023-05-10T10:17:30.532Z,49.35
2023-05-10T10:19:56.914Z,50.69
2023-05-10T10:22:23.177Z,51.17
2023-05-10T10:24:49.445Z,48.72
2023-05-10T10:27:20.965Z,50.25
2023-05-10T10:29:47.777Z,50.87
2023-05-10T10:32:14.051Z,48.11
2023-05-10T10:34:40.935Z,48.65
2023-05-10T10:37:07.277Z,47.59
2023-05-10T10:39:33.625Z,47.01
2023-05-10T10:41:59.903Z,48.52
2023-05-10T10:44:26.195Z,48.24
2023-05-10T10:46:52.513Z,48.81
2023-05-10T10:49:18.817Z,49.27
2023-05-10T10:51:45.496Z,48.55
2023-05-10T10:54:12.085Z,47.18
2023-05-10T10:56:39.070Z,46.24
2023-05-10T10:59:08.178Z,47.54
2023-05-10T11:01:34.922Z,47.42
2023-05-10T11:04:02.484Z,48.55
2023-05-10T11:06:28.801Z,47.97
2023-05-10T11:08:55.099Z,48.80
2023-05-10T11:11:24.097Z,48.43
2023-05-10T11:13:51.452Z,47.03
2023-05-10T11:16:19.318Z,47.23
2023-05-10T11:18:47.069Z,46.13
2023-05-10T11:21:15.131Z,44.51
2023-05-10T11:23:41.437Z,43.94
2023-05-10T11:26:07.676Z,44.24
2023-05-10T11:28:33.917Z,45.65
2023-05-10T11:31:00.285Z,45.63
2023-05-10T11:33:26.597Z,44.14
2023-05-10T11:35:55.634Z,43.92
2023-05-10T11:38:22.069Z,43.59
2023-05-10T11:40:48.350Z,43.47
2023-05-10T11:43:14.754Z,43.82
2023-05-10T11:45:41.210Z,41.04
2023-05-10T11:48:07.520Z,43.31
2023-05-10T11:50:34.179Z,42.58
2023-05-10T11:53:00.948Z,40.52
2023-05-10T11:55:27.261Z,40.68
2023-05-10T11:57:53.556Z,42.78
2023-05-10T12:00:22.049Z,42.73
2023-05-10T12:02:48.402Z,43.40
2023-05-10T12:05:15.198Z,43.92
2023-05-10T12:07:41.477Z,43.85
2023-05-10T12:10:07.875Z,43.18
2023-05-10T12:12:34.190Z,44.32
2023-05-10T12:15:00.513Z,43.15
2023-05-10T12:17:26.820Z,43.94
2023-05-10T12:19:53.110Z,43.81
2023-05-10T12:22:19.361Z,43.04
2023-05-10T12:24:45.612Z,42.00
2023-05-10T12:27:11.879Z,41.86
2023-05-10T12:29:38.154Z,42.82
2023-05-10T12:32:04.524Z,40.76
2023-05-10T12:34:30.953Z,41.35
2023-05-10T12:36:57.459Z,41.07
2023-05-10T12:39:23.742Z,40.19
2023-05-10T12:41:50.012Z,40.56
2023-05-10T12:44:16.282Z,38.30
2023-05-10T12:46:42.526Z,37.74
2023-05-10T12:49:09.774Z,37.95
2023-05-10T12:51:36.315Z,38.94
2023-05-10T12:54:02.582Z,38.92
2023-05-10T12:56:28.839Z,38.98
2023-05-10T12:58:55.123Z,39.85
2023-05-10T13:01:21.509Z,40.46
2023-05-10T13:03:47.812Z,39.41
2023-05-10T13:06:14.096Z,39.31
2023-05-10T13:08:40.333Z,41.44
2023-05-10T13:11:06.626Z,40.82
2023-05-10T13:13:32.904Z,40.93
2023-05-10T13:15:59.215Z,41.73
2023-05-10T13:18:25.652Z,41.87
2023-05-10T13:20:52.051Z,42.83
2023-05-10T13:23:18.308Z,42.49
2023-05-10T13:25:44.606Z,42.06
2023-05-10T13:28:10.860Z,43.18
2023-05-10T13:30:37.150Z,41.95
2023-05-10T13:33:03.485Z,43.17
2023-05-10T13:35:29.837Z,42.35
2023-05-10T13:37:56.126Z,42.14
2023-05-10T13:40:22.417Z,41.29
2023-05-10T13:42:48.824Z,41.26
2023-05-10T13:45:15.353Z,41.65
2023-05-10T13:47:42.023Z,40.07
2023-05-10T13:50:08.519Z,40.97
2023-05-10T13:52:34.948Z,42.06
2023-05-10T13:55:01.257Z,43.03
2023-05-10T13:57:27.504Z,42.44
2023-05-10T13:59:55.301Z,41.11
2023-05-10T14:02:22.144Z,42.76
2023-05-10T14:04:48.417Z,42.00
2023-05-10T14:07:14.648Z,42.67
2023-05-10T14:09:40.898Z,42.81
2023-05-10T14:12:07.179Z,42.50
2023-05-10T14:14:33.702Z,43.19
2023-05-10T14:17:00.011Z,42.95
2023-05-10T14:19:26.303Z,43.79
2023-05-10T14:21:52.581Z,43.02
2023-05-10T14:24:18.837Z,43.44
2023-05-10T14:26:45.163Z,41.71
2023-05-10T14:29:12.702Z,42.69
2023-05-10T14:31:39.125Z,42.88
2023-05-10T14:34:05.519Z,41.87
2023-05-10T14:36:31.769Z,42.75
2023-05-10T14:38:58.052Z,43.07
2023-05-10T14:41:24.343Z,42.80
2023-05-10T14:43:50.631Z,41.81
2023-05-10T14:46:16.998Z,42.78
2023-05-10T14:48:43.370Z,41.85
2023-05-10T14:51:09.653Z,43.26
2023-05-10T14:53:35.945Z,42.72
2023-05-10T14:56:02.234Z,42.45
2023-05-10T14:58:28.521Z,42.05
2023-05-10T15:00:54.792Z,42.77
2023-05-10T15:03:21.456Z,40.63
2023-05-10T15:05:48.343Z,41.90
2023-05-10T15:08:14.700Z,41.78
2023-05-10T15:10:40.979Z,40.60
2023-05-10T15:13:07.279Z,41.22
2023-05-10T15:15:33.666Z,42.68
2023-05-10T15:18:00.058Z,42.89
2023-05-10T15:20:26.428Z,42.82
2023-05-10T15:22:52.688Z,42.90
2023-05-10T15:25:19.245Z,41.91
2023-05-10T15:27:45.675Z,41.58
2023-05-10T15:30:11.971Z,41.85
2023-05-10T15:32:38.326Z,42.08
2023-05-10T15:35:04.569Z,42.29
2023-05-10T15:37:30.836Z,41.63
2023-05-10T15:39:57.587Z,42.89
2023-05-10T15:42:23.860Z,42.52
2023-05-10T15:44:50.133Z,43.49
2023-05-10T15:47:16.378Z,43.16
2023-05-10T15:49:42.698Z,43.28
2023-05-10T15:52:09.071Z,44.45
2023-05-10T15:54:35.341Z,44.81
2023-05-10T15:57:01.626Z,45.68
2023-05-10T15:59:27.875Z,45.84
2023-05-10T16:01:54.151Z,45.53
2023-05-10T16:04:20.419Z,45.26
2023-05-10T16:06:46.728Z,46.67
2023-05-10T16:09:13.030Z,45.62
2023-05-10T16:11:39.308Z,46.48
2023-05-10T16:14:07.134Z,44.32
2023-05-10T16:16:33.713Z,45.00
2023-05-10T16:19:00.084Z,44.00
2023-05-10T16:21:26.371Z,42.76
2023-05-10T16:23:52.618Z,44.13
2023-05-10T16:26:18.881Z,43.56
2023-05-10T16:28:45.124Z,44.33
2023-05-10T16:31:11.486Z,43.92
2023-05-10T16:33:37.761Z,42.92
2023-05-10T16:36:04.032Z,43.77
2023-05-10T16:38:30.289Z,44.38
2023-05-10T16:40:56.580Z,44.16
2023-05-10T16:43:24.640Z,43.41
2023-05-10T16:45:52.332Z,44.95
2023-05-10T16:48:18.605Z,44.01
2023-05-10T16:50:44.877Z,44.16
2023-05-10T16:53:11.153Z,42.93
2023-05-10T16:55:37.432Z,43.84
2023-05-10T16:58:03.696Z,44.33
2023-05-10T17:00:29.978Z,43.53
2023-05-10T17:02:56.309Z,43.79
2023-05-10T17:05:22.667Z,43.67
2023-05-10T17:07:48.930Z,43.52
2023-05-10T17:10:17.420Z,43.26
2023-05-10T17:12:43.686Z,44.05
2023-05-10T17:15:10.137Z,44.51
2023-05-10T17:17:36.834Z,44.23
2023-05-10T17:20:06.126Z,43.75
2023-05-10T17:22:32.600Z,42.80
2023-05-10T17:24:58.896Z,43.18
2023-05-10T17:27:25.173Z,43.25
2023-05-10T17:29:51.433Z,43.27
2023-05-10T17:32:17.792Z,42.99
2023-05-10T17:34:44.058Z,43.20
2023-05-10T17:37:10.859Z,41.44
2023-05-10T17:39:39.350Z,40.71
2023-05-10T17:42:06.231Z,40.98
2023-05-10T17:44:32.534Z,40.16
2023-05-10T17:46:58.810Z,41.05
2023-05-10T17:49:25.133Z,39.79
2023-05-10T17:51:51.913Z,40.95
2023-05-10T17:54:18.691Z,40.79
2023-05-10T17:56:45.113Z,40.06
2023-05-10T17:59:11.583Z,41.69
2023-05-10T18:01:38.105Z,41.15
2023-05-10T18:04:04.418Z,41.42
2023-05-10T18:06:30.693Z,42.54
2023-05-10T18:08:56.972Z,42.64
2023-05-10T18:11:23.240Z,42.92
2023-05-10T18:13:49.491Z,43.22
2023-05-10T18:16:15.870Z,43.14
2023-05-10T18:18:42.184Z,43.41
2023-05-10T18:23:51.592Z,44.10
2023-05-10T18:26:18.000Z,44.40
2023-05-10T18:28:44.393Z,44.67
2023-05-10T18:31:10.774Z,44.56
2023-05-10T18:33:37.276Z,44.84
2023-05-10T18:36:03.713Z,44.66
2023-05-10T18:38:30.138Z,44.85
2023-05-10T18:40:56.452Z,45.10
2023-05-10T18:43:22.751Z,44.98
2023-05-10T18:45:49.046Z,45.19
2023-05-10T18:48:15.382Z,45.76
2023-05-10T18:50:41.655Z,46.01
2023-05-10T18:53:07.920Z,45.96
2023-05-10T18:55:34.218Z,46.48
2023-05-10T18:58:00.493Z,46.53
2023-05-10T19:00:26.742Z,46.77
2023-05-10T19:02:53.045Z,46.46
2023-05-10T19:05:19.549Z,46.70
2023-05-10T19:07:46.083Z,46.59
2023-05-10T19:10:12.356Z,46.66
2023-05-10T19:12:38.620Z,46.67
2023-05-10T19:15:04.872Z,46.80
2023-05-10T19:17:31.363Z,46.33
2023-05-10T19:19:57.697Z,46.48
2023-05-10T19:22:35.346Z,46.35
2023-05-10T19:25:03.174Z,45.76
2023-05-10T19:27:31.810Z,46.36
2023-05-10T19:29:58.368Z,46.26
2023-05-10T19:32:25.234Z,46.10
2023-05-10T19:34:52.222Z,47.45
2023-05-10T19:37:18.951Z,47.38
2023-05-10T19:39:45.318Z,47.05
2023-05-10T19:42:11.608Z,47.69
2023-05-10T19:44:37.888Z,46.98
2023-05-10T19:47:04.263Z,47.70
2023-05-10T19:49:30.624Z,47.94
2023-05-10T19:51:56.916Z,47.64
2023-05-10T19:54:23.165Z,46.93
2023-05-10T19:56:49.420Z,46.64
2023-05-10T19:59:15.698Z,45.96
2023-05-10T20:01:41.968Z,47.62
2023-05-10T20:04:08.325Z,46.61
2023-05-10T20:06:34.612Z,47.22
2023-05-10T20:09:00.883Z,47.01
2023-05-10T20:11:27.156Z,47.55
2023-05-10T20:13:53.430Z,47.97
2023-05-10T20:16:19.724Z,48.97
2023-05-10T20:18:46.030Z,48.52
2023-05-10T20:21:12.329Z,48.68
2023-05-10T20:23:38.586Z,48.89
2023-05-10T20:26:04.847Z,49.08
2023-05-10T20:28:31.121Z,49.54
2023-05-10T20:30:57.374Z,49.97
2023-05-10T20:33:23.665Z,49.76
2023-05-10T20:35:49.951Z,50.15
2023-05-10T20:38:16.286Z,50.79
2023-05-10T20:40:42.559Z,50.37
2023-05-10T20:43:08.839Z,50.71
2023-05-10T20:45:36.928Z,50.92
2023-05-10T20:48:03.814Z,50.93
2023-05-10T20:50:30.103Z,50.95
2023-05-10T20:52:56.382Z,51.39
2023-05-10T20:55:22.686Z,52.04
2023-05-10T20:57:48.947Z,51.99
2023-05-10T21:00:15.285Z,52.46
2023-05-10T21:02:41.734Z,52.83
2023-05-10T21:05:08.058Z,52.34
2023-05-10T21:07:34.416Z,51.89
2023-05-10T21:10:00.672Z,51.17
2023-05-10T21:12:26.966Z,51.15
2023-05-10T21:14:53.225Z,49.98
2023-05-10T21:17:20.229Z,49.60
2023-05-10T21:19:46.718Z,50.38
2023-05-10T21:22:13.019Z,49.66
2023-05-10T21:24:39.270Z,50.00
2023-05-10T21:27:05.558Z,50.69
2023-05-10T21:29:31.839Z,50.04
2023-05-10T21:31:58.138Z,50.64
2023-05-10T21:34:24.437Z,50.80
2023-05-10T21:36:50.677Z,50.82
2023-05-10T21:39:16.930Z,51.57
2023-05-10T21:41:43.173Z,51.79
2023-05-10T21:44:09.504Z,52.14
2023-05-10T21:46:35.780Z,52.49
2023-05-10T21:49:02.025Z,52.75
2023-05-10T21:51:28.282Z,52.77
2023-05-10T21:53:54.550Z,52.15
2023-05-10T21:56:20.820Z,52.58
2023-05-10T21:58:47.074Z,52.72
2023-05-10T22:01:13.360Z,52.85
2023-05-10T22:03:39.698Z,52.64
2023-05-10T22:06:05.981Z,52.25
2023-05-10T22:08:32.263Z,53.02
2023-05-10T22:10:58.525Z,53.60
2023-05-10T22:13:24.809Z,54.04
2023-05-10T22:15:51.068Z,54.53
2023-05-10T22:18:17.388Z,55.06
2023-05-10T22:20:43.657Z,56.36
2023-05-10T22:23:09.925Z,56.19
2023-05-10T22:25:37.272Z,56.04
2023-05-10T22:28:03.549Z,56.76
2023-05-10T22:30:31.026Z,57.36
2023-05-10T22:32:59.125Z,56.18
2023-05-10T22:35:25.455Z,57.04
2023-05-10T22:37:51.721Z,56.68
2023-05-10T22:40:18.173Z,57.37
2023-05-10T22:42:44.603Z,56.09
2023-05-10T22:45:10.837Z,56.86
2023-05-10T22:47:37.140Z,57.26
2023-05-10T22:50:03.454Z,56.71
2023-05-10T22:52:29.707Z,56.87
2023-05-10T22:54:55.954Z,57.31
2023-05-10T22:57:22.199Z,56.93
2023-05-10T22:59:48.497Z,57.04
2023-05-10T23:02:14.787Z,56.27
2023-05-10T23:04:41.075Z,56.01
2023-05-10T23:07:07.366Z,56.05
2023-05-10T23:09:33.616Z,56.39
2023-05-10T23:11:59.894Z,56.01
2023-05-10T23:14:26.173Z,56.03
2023-05-10T23:16:52.417Z,56.21
2023-05-10T23:19:18.732Z,56.01
2023-05-10T23:21:45.054Z,56.06
2023-05-10T23:24:13.303Z,56.77
2023-05-10T23:26:39.568Z,57.17
2023-05-10T23:29:05.841Z,56.64
2023-05-10T23:31:32.125Z,56.34
2023-05-10T23:33:58.428Z,56.64
2023-05-10T23:36:24.747Z,56.68
2023-05-10T23:38:51.004Z,56.53
2023-05-10T23:41:17.270Z,56.29
2023-05-10T23:43:43.518Z,56.70
2023-05-10T23:46:09.838Z,57.90
2023-05-10T23:48:36.097Z,58.30
2023-05-10T23:51:02.340Z,58.76
2023-05-10T23:53:28.596Z,59.59
2023-05-10T23:55:54.878Z,60.42
2023-05-10T23:58:21.183Z,59.80
